Time;durP1;ratioP1;P1;durP2;ratioP2;P2;SDS_P1;SDS_P2;PMS_P1;PMS_P2;Temp;Humidity;BMP_temperature;BMP_pressure;BME280_temperature;BME280_humidity;BME280_pressure;Samples;Min_cycle;Max_cycle;Signal;HPM_P1;HPM_P2
2023/09/30 00:01:58;;;;;;;14.18;3.83;;;;;;;;;;4369601;32;318057;-84
2023/09/30 00:04:27;;;;;;;11.20;3.87;;;;;;;;;;4355050;32;357274;-84
2023/09/30 00:06:54;;;;;;;11.57;4.20;;;;;;;;;;4368077;32;318043;-85
2023/09/30 00:09:21;;;;;;;14.93;3.97;;;;;;;;;;4357586;32;317784;-86
2023/09/30 00:11:49;;;;;;;11.10;4.05;;;;;;;;;;4372919;32;317687;-83
2023/09/30 00:14:17;;;;;;;12.80;4.75;;;;;;;;;;4363065;32;317933;-85
2023/09/30 00:16:45;;;;;;;12.52;4.05;;;;;;;;;;4371835;32;318543;-83
2023/09/30 00:19:13;;;;;;;8.13;4.22;;;;;;;;;;4362513;32;318047;-85
2023/09/30 00:21:40;;;;;;;12.73;4.70;;;;;;;;;;4369907;32;316696;-84
2023/09/30 00:24:09;;;;;;;12.63;4.25;;;;;;;;;;4359270;32;401470;-85
2023/09/30 00:26:36;;;;;;;9.38;3.90;;;;;;;;;;4371891;32;317788;-82
2023/09/30 00:29:07;;;;;;;8.68;4.03;;;;;;;;;;4372509;32;316741;-82
2023/09/30 00:31:36;;;;;;;23.95;5.00;;;;;;;;;;4353650;32;418849;-82
2023/09/30 00:34:08;;;;;;;8.43;4.28;;;;;;;;;;4370900;32;317792;-82
2023/09/30 00:36:36;;;;;;;13.90;5.12;;;;;;;;;;4354443;32;417093;-84
2023/09/30 00:39:04;;;;;;;15.10;4.65;;;;;;;;;;4371884;32;317836;-85
2023/09/30 00:41:31;;;;;;;8.68;4.78;;;;;;;;;;4356692;32;389161;-83
2023/09/30 00:43:59;;;;;;;17.92;5.15;;;;;;;;;;4354565;32;316913;-84
2023/09/30 00:46:29;;;;;;;14.87;4.53;;;;;;;;;;4346649;32;317886;-84
2023/09/30 00:48:59;;;;;;;10.35;5.25;;;;;;;;;;4372399;32;317623;-83
2023/09/30 00:51:29;;;;;;;14.63;4.75;;;;;;;;;;4358507;32;318029;-85
2023/09/30 00:53:59;;;;;;;15.63;4.57;;;;;;;;;;4370700;32;317988;-83
2023/09/30 00:56:29;;;;;;;14.95;4.62;;;;;;;;;;4359340;32;317789;-83
2023/09/30 00:58:57;;;;;;;15.07;3.92;;;;;;;;;;4373005;32;317774;-83
2023/09/30 01:01:25;;;;;;;6.60;4.45;;;;;;;;;;4357938;32;334039;-85
2023/09/30 01:03:53;;;;;;;17.30;4.90;;;;;;;;;;4370867;32;316640;-84
2023/09/30 01:06:21;;;;;;;8.95;4.57;;;;;;;;;;4361101;32;317969;-84
2023/09/30 01:08:50;;;;;;;14.45;5.43;;;;;;;;;;4369576;32;316658;-83
2023/09/30 01:11:18;;;;;;;11.68;5.03;;;;;;;;;;4359720;32;317787;-84
2023/09/30 01:13:47;;;;;;;10.40;4.43;;;;;;;;;;4371533;32;317832;-83
2023/09/30 01:16:14;;;;;;;13.65;4.62;;;;;;;;;;4360812;32;317989;-84
2023/09/30 01:18:43;;;;;;;7.37;4.53;;;;;;;;;;4371576;32;318076;-83
2023/09/30 01:21:11;;;;;;;10.07;4.43;;;;;;;;;;4359383;32;316762;-83
2023/09/30 01:23:40;;;;;;;11.95;4.95;;;;;;;;;;4366585;32;318080;-83
2023/09/30 01:26:10;;;;;;;11.12;4.68;;;;;;;;;;4359241;32;317737;-84
2023/09/30 01:28:37;;;;;;;10.55;4.22;;;;;;;;;;4369559;32;317946;-84
2023/09/30 01:31:05;;;;;;;14.00;4.70;;;;;;;;;;4369825;32;317680;-83
2023/09/30 01:33:32;;;;;;;7.37;4.53;;;;;;;;;;4353600;32;417305;-83
2023/09/30 01:36:00;;;;;;;9.65;4.55;;;;;;;;;;4368932;32;316527;-82
2023/09/30 01:38:27;;;;;;;11.05;4.28;;;;;;;;;;4357672;32;316682;-84
2023/09/30 01:40:56;;;;;;;9.98;4.45;;;;;;;;;;4368125;32;317682;-83
2023/09/30 01:43:24;;;;;;;11.57;5.12;;;;;;;;;;4356071;32;317020;-83
2023/09/30 01:45:51;;;;;;;10.55;4.28;;;;;;;;;;4370398;32;317530;-84
2023/09/30 01:48:18;;;;;;;10.13;4.50;;;;;;;;;;4358210;32;318048;-84
2023/09/30 01:50:46;;;;;;;7.03;4.82;;;;;;;;;;4369051;32;317754;-84
2023/09/30 01:53:13;;;;;;;20.92;4.57;;;;;;;;;;4359695;32;316902;-84
2023/09/30 01:55:40;;;;;;;8.93;4.82;;;;;;;;;;4365375;32;317815;-84
2023/09/30 01:58:11;;;;;;;8.85;5.25;;;;;;;;;;4355844;32;316924;-84
2023/09/30 02:00:38;;;;;;;14.32;5.62;;;;;;;;;;4367534;32;316858;-83
2023/09/30 02:03:07;;;;;;;7.53;4.43;;;;;;;;;;4363015;32;317963;-84
2023/09/30 02:05:34;;;;;;;10.48;5.62;;;;;;;;;;4366432;32;316946;-83
2023/09/30 02:08:05;;;;;;;8.05;4.72;;;;;;;;;;4369788;32;317727;-83
2023/09/30 02:10:33;;;;;;;7.93;4.47;;;;;;;;;;4357430;32;416371;-83
2023/09/30 02:13:01;;;;;;;22.70;6.05;;;;;;;;;;4367149;32;316725;-83
2023/09/30 02:15:29;;;;;;;10.38;5.20;;;;;;;;;;4355174;32;317958;-84
2023/09/30 02:17:57;;;;;;;10.75;6.15;;;;;;;;;;4369911;32;317794;-84
2023/09/30 02:20:25;;;;;;;14.13;6.07;;;;;;;;;;4358539;32;317698;-84
2023/09/30 02:22:54;;;;;;;13.80;4.75;;;;;;;;;;4366196;32;317877;-83
2023/09/30 02:25:21;;;;;;;10.80;4.95;;;;;;;;;;4357745;32;317920;-83
2023/09/30 02:27:50;;;;;;;12.37;5.43;;;;;;;;;;4363024;32;317749;-84
2023/09/30 02:30:18;;;;;;;17.70;6.60;;;;;;;;;;4358224;32;317809;-83
2023/09/30 02:32:47;;;;;;;11.35;5.80;;;;;;;;;;4368647;32;317907;-83
2023/09/30 02:35:15;;;;;;;9.77;6.20;;;;;;;;;;4358367;32;318043;-84
2023/09/30 02:37:42;;;;;;;6.97;5.22;;;;;;;;;;4366094;32;316899;-84
2023/09/30 02:40:14;;;;;;;16.33;5.57;;;;;;;;;;4353708;32;347894;-84
2023/09/30 02:42:42;;;;;;;16.17;5.35;;;;;;;;;;4368095;32;317872;-83
2023/09/30 02:45:11;;;;;;;11.77;5.45;;;;;;;;;;4359227;32;317970;-84
2023/09/30 02:47:39;;;;;;;12.03;6.00;;;;;;;;;;4363506;32;317690;-83
2023/09/30 02:50:11;;;;;;;9.13;5.22;;;;;;;;;;4357541;32;317734;-84
2023/09/30 02:52:40;;;;;;;11.60;6.12;;;;;;;;;;4369399;32;317001;-84
2023/09/30 02:55:09;;;;;;;14.32;5.60;;;;;;;;;;4355729;32;356327;-84
2023/09/30 02:57:36;;;;;;;5.12;4.55;;;;;;;;;;4365686;32;317782;-83
2023/09/30 03:00:13;;;;;;;17.23;5.32;;;;;;;;;;4366912;32;316649;-84
2023/09/30 03:02:41;;;;;;;7.75;4.35;;;;;;;;;;4354122;32;417117;-83
2023/09/30 03:05:11;;;;;;;19.95;4.28;;;;;;;;;;4354295;32;325916;-84
2023/09/30 03:07:39;;;;;;;13.68;4.87;;;;;;;;;;4361891;32;317853;-83
2023/09/30 03:10:08;;;;;;;7.60;4.37;;;;;;;;;;4358099;32;317902;-84
2023/09/30 03:12:36;;;;;;;14.57;5.28;;;;;;;;;;4366192;32;331393;-84
2023/09/30 03:15:04;;;;;;;13.30;5.03;;;;;;;;;;4368349;32;317688;-83
2023/09/30 03:17:32;;;;;;;19.85;4.70;;;;;;;;;;4350068;32;416554;-84
2023/09/30 03:19:59;;;;;;;14.52;4.75;;;;;;;;;;4368521;32;317885;-83
2023/09/30 03:22:28;;;;;;;15.85;5.60;;;;;;;;;;4357138;32;317767;-84
2023/09/30 03:24:56;;;;;;;17.70;6.07;;;;;;;;;;4367901;32;318295;-83
2023/09/30 03:27:24;;;;;;;14.35;4.75;;;;;;;;;;4352835;32;317984;-84
2023/09/30 03:29:51;;;;;;;15.02;5.57;;;;;;;;;;4368608;32;317810;-83
2023/09/30 03:32:17;;;;;;;16.02;5.03;;;;;;;;;;4357128;32;317900;-84
2023/09/30 03:34:46;;;;;;;22.10;5.12;;;;;;;;;;4367665;32;316697;-84
2023/09/30 03:37:13;;;;;;;12.52;5.12;;;;;;;;;;4358418;32;318714;-83
2023/09/30 03:39:42;;;;;;;21.10;5.32;;;;;;;;;;4363508;32;317927;-83
2023/09/30 03:42:11;;;;;;;11.57;5.50;;;;;;;;;;4356447;32;318134;-83
2023/09/30 03:44:39;;;;;;;12.70;5.53;;;;;;;;;;4367636;32;317812;-85
2023/09/30 03:47:08;;;;;;;14.75;5.50;;;;;;;;;;4358801;32;318131;-86
2023/09/30 03:49:38;;;;;;;13.55;5.43;;;;;;;;;;4364448;32;318296;-85
2023/09/30 03:52:06;;;;;;;9.38;4.95;;;;;;;;;;4367659;32;318122;-84
2023/09/30 03:54:33;;;;;;;11.05;5.10;;;;;;;;;;4355659;32;416320;-84
2023/09/30 03:57:03;;;;;;;14.63;5.07;;;;;;;;;;4364848;32;318262;-83
2023/09/30 03:59:30;;;;;;;31.73;5.72;;;;;;;;;;4353079;32;318092;-84
2023/09/30 04:01:58;;;;;;;12.73;6.15;;;;;;;;;;4367935;32;326876;-84
2023/09/30 04:04:25;;;;;;;19.77;5.60;;;;;;;;;;4358743;32;317837;-85
2023/09/30 04:06:53;;;;;;;8.02;5.68;;;;;;;;;;4366921;32;317800;-84
2023/09/30 04:09:21;;;;;;;7.18;4.93;;;;;;;;;;4357632;32;316663;-84
2023/09/30 04:11:49;;;;;;;11.85;5.18;;;;;;;;;;4365392;32;316805;-84
2023/09/30 04:14:18;;;;;;;9.63;5.53;;;;;;;;;;4358233;32;318265;-84
2023/09/30 04:16:45;;;;;;;16.30;5.53;;;;;;;;;;4368455;32;316820;-85
2023/09/30 04:19:13;;;;;;;9.07;4.35;;;;;;;;;;4356201;32;317886;-85
2023/09/30 04:21:41;;;;;;;23.17;6.35;;;;;;;;;;4363070;32;316734;-85
2023/09/30 04:24:09;;;;;;;17.35;6.22;;;;;;;;;;4358532;32;318057;-85
2023/09/30 04:26:36;;;;;;;11.07;5.35;;;;;;;;;;4368586;32;317906;-85
2023/09/30 04:29:10;;;;;;;18.87;6.05;;;;;;;;;;4365579;32;318276;-85
2023/09/30 04:31:41;;;;;;;14.38;5.80;;;;;;;;;;4350858;32;416926;-85
2023/09/30 04:34:08;;;;;;;18.98;6.47;;;;;;;;;;4353331;32;318154;-86
2023/09/30 04:36:36;;;;;;;11.45;5.90;;;;;;;;;;4366191;32;317883;-85
2023/09/30 04:39:05;;;;;;;15.90;7.07;;;;;;;;;;4367528;32;318030;-84
2023/09/30 04:41:32;;;;;;;16.27;6.20;;;;;;;;;;4349186;32;417154;-84
2023/09/30 04:44:00;;;;;;;12.82;7.18;;;;;;;;;;4358580;32;317653;-84
2023/09/30 04:46:27;;;;;;;23.67;7.82;;;;;;;;;;4350827;32;318005;-84
2023/09/30 04:48:56;;;;;;;16.35;7.55;;;;;;;;;;4359642;32;317891;-84
2023/09/30 04:51:25;;;;;;;15.30;7.62;;;;;;;;;;4346268;32;317878;-84
2023/09/30 04:53:54;;;;;;;17.02;8.80;;;;;;;;;;4357660;32;357602;-85
2023/09/30 04:56:22;;;;;;;21.60;9.02;;;;;;;;;;4351699;32;318382;-85
2023/09/30 04:58:49;;;;;;;21.73;9.88;;;;;;;;;;4365420;32;317707;-84
2023/09/30 05:01:18;;;;;;;28.33;10.65;;;;;;;;;;4351999;32;317945;-85
2023/09/30 05:03:48;;;;;;;15.50;9.73;;;;;;;;;;4359945;32;318928;-85
2023/09/30 05:06:17;;;;;;;16.55;9.05;;;;;;;;;;4350902;32;316714;-84
2023/09/30 05:08:45;;;;;;;15.43;9.43;;;;;;;;;;4363571;32;317742;-84
2023/09/30 05:11:12;;;;;;;15.35;8.93;;;;;;;;;;4352663;32;317980;-84
2023/09/30 05:13:39;;;;;;;19.33;9.90;;;;;;;;;;4359346;32;317904;-83
2023/09/30 05:16:07;;;;;;;18.85;9.57;;;;;;;;;;4348339;32;421019;-84
2023/09/30 05:18:34;;;;;;;18.00;9.77;;;;;;;;;;4364978;32;317827;-85
2023/09/30 05:21:01;;;;;;;16.20;9.73;;;;;;;;;;4363926;32;318212;-83
2023/09/30 05:23:30;;;;;;;23.17;10.10;;;;;;;;;;4348020;32;318140;-85
2023/09/30 05:25:58;;;;;;;15.90;9.32;;;;;;;;;;4360553;32;326841;-83
2023/09/30 05:28:24;;;;;;;23.50;9.38;;;;;;;;;;4352757;32;317961;-82
2023/09/30 05:30:51;;;;;;;16.70;9.50;;;;;;;;;;4363312;32;317829;-82
2023/09/30 05:33:19;;;;;;;26.87;10.33;;;;;;;;;;4351286;32;351629;-82
2023/09/30 05:35:47;;;;;;;15.50;9.07;;;;;;;;;;4356755;32;318994;-88
2023/09/30 05:38:14;;;;;;;18.40;9.98;;;;;;;;;;4341623;32;318064;-86
2023/09/30 05:40:44;;;;;;;13.73;7.15;;;;;;;;;;4356707;32;318018;-85
2023/09/30 05:43:13;;;;;;;21.10;9.35;;;;;;;;;;4358879;32;317893;-94
2023/09/30 05:45:48;;;;;;;18.27;7.62;;;;;;;;;;4366689;32;317661;-83
2023/09/30 05:48:16;;;;;;;10.75;7.25;;;;;;;;;;4358095;32;317939;-83
2023/09/30 05:50:43;;;;;;;15.95;6.43;;;;;;;;;;4369072;32;318166;-83
2023/09/30 05:53:11;;;;;;;17.83;6.82;;;;;;;;;;4358461;32;318031;-82
2023/09/30 05:55:42;;;;;;;17.40;6.97;;;;;;;;;;4364919;32;317877;-81
2023/09/30 05:58:13;;;;;;;20.92;6.75;;;;;;;;;;4354754;32;318068;-84
2023/09/30 06:00:41;;;;;;;13.00;6.95;;;;;;;;;;4367207;32;317847;-84
2023/09/30 06:03:10;;;;;;;26.83;8.77;;;;;;;;;;4357115;32;317879;-80
2023/09/30 06:05:41;;;;;;;22.02;7.45;;;;;;;;;;4363832;32;317434;-81
2023/09/30 06:08:10;;;;;;;14.57;6.90;;;;;;;;;;4359944;32;317858;-80
2023/09/30 06:10:42;;;;;;;22.42;7.68;;;;;;;;;;4370306;32;317781;-81
2023/09/30 06:13:11;;;;;;;13.25;7.55;;;;;;;;;;4358649;32;317809;-81
2023/09/30 06:15:40;;;;;;;17.40;5.25;;;;;;;;;;4366510;32;317702;-82
2023/09/30 06:18:07;;;;;;;10.48;5.85;;;;;;;;;;4357837;32;318049;-80
2023/09/30 06:20:35;;;;;;;12.50;5.65;;;;;;;;;;4368725;32;318410;-81
2023/09/30 06:23:02;;;;;;;19.70;5.70;;;;;;;;;;4366627;32;317862;-80
2023/09/30 06:25:30;;;;;;;9.73;5.60;;;;;;;;;;4355770;32;317791;-80
2023/09/30 06:27:57;;;;;;;27.25;6.20;;;;;;;;;;4368750;32;316615;-81
2023/09/30 06:30:29;;;;;;;17.50;6.20;;;;;;;;;;4357830;32;335479;-83
2023/09/30 06:32:57;;;;;;;30.58;6.55;;;;;;;;;;4368851;32;317777;-81
2023/09/30 06:35:26;;;;;;;22.17;5.82;;;;;;;;;;4356677;32;317826;-82
2023/09/30 06:37:53;;;;;;;20.92;5.85;;;;;;;;;;4367647;32;317812;-79
2023/09/30 06:40:21;;;;;;;15.95;6.40;;;;;;;;;;4357431;32;348583;-79
2023/09/30 06:42:48;;;;;;;14.60;5.70;;;;;;;;;;4368316;32;317794;-79
2023/09/30 06:45:15;;;;;;;10.50;5.78;;;;;;;;;;4358813;32;318115;-80
2023/09/30 06:47:45;;;;;;;25.67;6.75;;;;;;;;;;4365801;32;318013;-79
2023/09/30 06:50:16;;;;;;;11.98;5.75;;;;;;;;;;4356048;32;317920;-78
2023/09/30 06:52:45;;;;;;;17.35;5.55;;;;;;;;;;4368391;32;317930;-78
2023/09/30 06:55:16;;;;;;;14.35;6.40;;;;;;;;;;4358424;32;318117;-78
2023/09/30 06:57:43;;;;;;;15.73;7.18;;;;;;;;;;4364295;32;317890;-78
2023/09/30 07:00:13;;;;;;;15.10;5.68;;;;;;;;;;4355855;32;317859;-78
2023/09/30 07:02:41;;;;;;;17.65;5.72;;;;;;;;;;4368612;32;318017;-78
2023/09/30 07:05:11;;;;;;;9.52;5.60;;;;;;;;;;4356693;32;318216;-78
2023/09/30 07:07:39;;;;;;;15.23;6.32;;;;;;;;;;4364301;32;317127;-78
2023/09/30 07:10:08;;;;;;;14.30;6.40;;;;;;;;;;4358311;32;318061;-79
2023/09/30 07:12:35;;;;;;;10.70;6.35;;;;;;;;;;4367952;32;317787;-79
2023/09/30 07:15:03;;;;;;;14.77;7.18;;;;;;;;;;4368610;32;317987;-78
2023/09/30 07:17:30;;;;;;;10.80;6.10;;;;;;;;;;4353954;32;318204;-76
2023/09/30 07:19:57;;;;;;;17.70;7.00;;;;;;;;;;4365878;32;317947;-79
2023/09/30 07:22:26;;;;;;;16.42;7.82;;;;;;;;;;4358206;32;336224;-78
2023/09/30 07:24:54;;;;;;;16.05;7.53;;;;;;;;;;4367397;32;317774;-78
2023/09/30 07:27:21;;;;;;;21.80;7.10;;;;;;;;;;4355537;32;317970;-78
2023/09/30 07:29:49;;;;;;;15.00;7.30;;;;;;;;;;4365318;32;324589;-79
2023/09/30 07:32:16;;;;;;;12.85;7.53;;;;;;;;;;4357150;32;318275;-79
2023/09/30 07:34:43;;;;;;;25.70;8.27;;;;;;;;;;4368744;32;318044;-80
2023/09/30 07:37:11;;;;;;;11.43;6.30;;;;;;;;;;4357081;32;317616;-81
2023/09/30 07:39:39;;;;;;;17.48;7.10;;;;;;;;;;4362775;32;317999;-80
2023/09/30 07:42:09;;;;;;;18.58;6.87;;;;;;;;;;4355491;32;376677;-81
2023/09/30 07:44:37;;;;;;;25.73;7.40;;;;;;;;;;4367457;32;317908;-79
2023/09/30 07:47:06;;;;;;;20.42;6.90;;;;;;;;;;4366667;32;317980;-79
2023/09/30 07:49:33;;;;;;;12.52;6.18;;;;;;;;;;4349581;32;417383;-80
2023/09/30 07:52:00;;;;;;;13.75;6.35;;;;;;;;;;4368422;32;318123;-80
2023/09/30 07:54:28;;;;;;;16.15;5.18;;;;;;;;;;4358230;32;317994;-80
2023/09/30 07:56:57;;;;;;;13.32;4.43;;;;;;;;;;4366802;32;317874;-80
2023/09/30 07:59:25;;;;;;;11.73;4.57;;;;;;;;;;4354439;32;317953;-79
2023/09/30 08:01:53;;;;;;;12.82;4.78;;;;;;;;;;4367138;32;317866;-80
2023/09/30 08:04:20;;;;;;;11.40;6.47;;;;;;;;;;4356950;32;317910;-80
2023/09/30 08:06:48;;;;;;;20.95;6.37;;;;;;;;;;4366493;32;317849;-79
2023/09/30 08:09:15;;;;;;;15.57;5.65;;;;;;;;;;4356563;32;317903;-79
2023/09/30 08:11:43;;;;;;;16.80;4.93;;;;;;;;;;4363253;32;317682;-79
2023/09/30 08:14:12;;;;;;;11.75;5.43;;;;;;;;;;4356973;32;317900;-79
2023/09/30 08:16:40;;;;;;;8.68;5.07;;;;;;;;;;4367875;32;317968;-78
2023/09/30 08:19:07;;;;;;;18.70;5.22;;;;;;;;;;4353279;32;316868;-78
2023/09/30 08:21:35;;;;;;;18.20;5.10;;;;;;;;;;4363530;32;317685;-79
2023/09/30 08:24:03;;;;;;;18.62;5.18;;;;;;;;;;4365022;32;317593;-80
2023/09/30 08:26:31;;;;;;;24.92;6.60;;;;;;;;;;4356521;32;330502;-77
2023/09/30 08:28:58;;;;;;;14.13;6.30;;;;;;;;;;4368651;32;317724;-78
2023/09/30 08:31:27;;;;;;;13.13;6.05;;;;;;;;;;4354316;32;317865;-81
2023/09/30 08:33:54;;;;;;;14.80;6.53;;;;;;;;;;4370042;32;317543;-80
2023/09/30 08:36:22;;;;;;;13.70;6.80;;;;;;;;;;4361043;32;318058;-79
2023/09/30 08:38:49;;;;;;;24.35;6.55;;;;;;;;;;4370503;32;317928;-79
2023/09/30 08:41:30;;;;;;;16.65;6.68;;;;;;;;;;4358412;32;317758;-80
2023/09/30 08:44:00;;;;;;;17.70;7.40;;;;;;;;;;4369771;32;317674;-79
2023/09/30 08:46:31;;;;;;;14.02;7.18;;;;;;;;;;4360002;32;342975;-81
2023/09/30 08:49:00;;;;;;;12.88;7.47;;;;;;;;;;4369813;32;317835;-79
2023/09/30 08:51:29;;;;;;;25.17;7.65;;;;;;;;;;4356382;32;318009;-80
2023/09/30 08:53:58;;;;;;;13.95;6.95;;;;;;;;;;4369490;32;317804;-79
2023/09/30 08:56:28;;;;;;;13.88;7.12;;;;;;;;;;4359848;32;317870;-79
2023/09/30 08:58:58;;;;;;;18.05;7.47;;;;;;;;;;4368799;32;317940;-78
2023/09/30 09:01:28;;;;;;;17.17;7.00;;;;;;;;;;4351567;32;318105;-81
2023/09/30 09:03:57;;;;;;;20.45;7.90;;;;;;;;;;4369967;32;317739;-80
2023/09/30 09:06:26;;;;;;;13.77;7.62;;;;;;;;;;4359561;32;317992;-86
2023/09/30 09:08:53;;;;;;;19.92;7.95;;;;;;;;;;4374182;32;317766;-86
2023/09/30 09:11:21;;;;;;;13.90;7.50;;;;;;;;;;4366157;32;317820;-86
2023/09/30 09:13:53;;;;;;;18.25;7.22;;;;;;;;;;4370218;32;317942;-86
2023/09/30 09:16:21;;;;;;;20.85;7.55;;;;;;;;;;4361942;32;318116;-84
2023/09/30 09:18:48;;;;;;;11.00;7.35;;;;;;;;;;4372169;32;317837;-87
2023/09/30 09:21:22;;;;;;;25.50;7.32;;;;;;;;;;4359140;32;318079;-86
2023/09/30 09:23:53;;;;;;;9.30;7.18;;;;;;;;;;4368624;32;317906;-86
2023/09/30 09:26:27;;;;;;;14.18;5.75;;;;;;;;;;4358941;32;316820;-81
2023/09/30 09:29:00;;;;;;;16.10;7.35;;;;;;;;;;4365618;32;317840;-81
2023/09/30 09:31:29;;;;;;;16.10;7.37;;;;;;;;;;4333693;32;317840;-85
2023/09/30 09:33:57;;;;;;;15.57;7.40;;;;;;;;;;4370376;32;318089;-87
2023/09/30 09:36:41;;;;;;;16.80;7.43;;;;;;;;;;4358606;32;318017;-87
2023/09/30 09:39:12;;;;;;;18.60;7.45;;;;;;;;;;4359708;32;323850;-87
2023/09/30 09:41:51;;;;;;;14.80;7.07;;;;;;;;;;4365137;32;317997;-82
2023/09/30 09:44:21;;;;;;;16.20;6.15;;;;;;;;;;4360093;32;317733;-81
2023/09/30 09:46:50;;;;;;;9.85;6.45;;;;;;;;;;4368379;32;317548;-82
2023/09/30 09:49:23;;;;;;;11.00;6.93;;;;;;;;;;4356822;32;316893;-85
2023/09/30 09:51:54;;;;;;;8.55;6.28;;;;;;;;;;4369173;32;317853;-86
2023/09/30 09:54:23;;;;;;;11.12;7.03;;;;;;;;;;4359103;32;317060;-86
2023/09/30 09:56:52;;;;;;;24.00;8.40;;;;;;;;;;4369997;32;317738;-87
2023/09/30 09:59:23;;;;;;;15.23;6.60;;;;;;;;;;4354608;32;317831;-83
2023/09/30 10:01:51;;;;;;;13.52;7.28;;;;;;;;;;4369109;32;318039;-82
2023/09/30 10:04:19;;;;;;;19.67;6.95;;;;;;;;;;4359143;32;318073;-86
2023/09/30 10:06:51;;;;;;;20.83;6.80;;;;;;;;;;4368826;32;317737;-81
2023/09/30 10:09:21;;;;;;;12.60;7.18;;;;;;;;;;4355780;32;350553;-84
2023/09/30 10:11:49;;;;;;;13.73;6.53;;;;;;;;;;4370163;32;317743;-87
2023/09/30 10:14:32;;;;;;;12.27;6.65;;;;;;;;;;4357835;32;346387;-87
2023/09/30 10:17:01;;;;;;;11.12;6.28;;;;;;;;;;4369475;32;317759;-81
2023/09/30 10:19:32;;;;;;;8.93;6.12;;;;;;;;;;4357449;32;317789;-84
2023/09/30 10:22:21;;;;;;;17.25;6.75;;;;;;;;;;4368811;32;316913;-81
2023/09/30 10:24:51;;;;;;;18.40;6.35;;;;;;;;;;4356274;32;418202;-81
2023/09/30 10:27:39;;;;;;;17.83;6.15;;;;;;;;;;4352931;32;318438;-84
2023/09/30 10:30:15;;;;;;;13.55;6.22;;;;;;;;;;4356223;32;376973;-82
2023/09/30 10:33:11;;;;;;;8.48;5.20;;;;;;;;;;4354863;32;317873;-81
2023/09/30 10:35:49;;;;;;;11.25;5.65;;;;;;;;;;4354121;32;389012;-82
2023/09/30 10:38:40;;;;;;;10.25;5.60;;;;;;;;;;4343963;32;317720;-81
2023/09/30 10:41:11;;;;;;;15.75;6.60;;;;;;;;;;4354493;32;317888;-81
2023/09/30 10:43:41;;;;;;;18.08;6.05;;;;;;;;;;4365353;32;317838;-81
2023/09/30 10:46:34;;;;;;;16.33;6.82;;;;;;;;;;4357196;32;318038;-81
2023/09/30 10:49:19;;;;;;;13.48;7.28;;;;;;;;;;4367839;32;318061;-84
2023/09/30 10:51:46;;;;;;;12.80;5.57;;;;;;;;;;4356256;32;419314;-86
2023/09/30 10:54:14;;;;;;;22.55;7.97;;;;;;;;;;4358100;32;318495;-87
2023/09/30 10:56:44;;;;;;;15.05;6.22;;;;;;;;;;4369793;32;317439;-86
2023/09/30 10:59:11;;;;;;;18.60;6.12;;;;;;;;;;4357871;32;317693;-84
2023/09/30 11:01:39;;;;;;;10.23;6.00;;;;;;;;;;4365206;32;317642;-84
2023/09/30 11:04:08;;;;;;;20.30;5.45;;;;;;;;;;4362659;32;318015;-84
2023/09/30 11:06:36;;;;;;;8.63;6.20;;;;;;;;;;4367900;32;317837;-80
2023/09/30 11:09:03;;;;;;;14.85;6.00;;;;;;;;;;4365784;32;342379;-81
2023/09/30 11:11:38;;;;;;;10.32;5.28;;;;;;;;;;4356321;32;317709;-81
2023/09/30 11:14:18;;;;;;;9.35;5.57;;;;;;;;;;4368542;32;336812;-81
2023/09/30 11:16:46;;;;;;;12.68;5.68;;;;;;;;;;4348839;32;416134;-81
2023/09/30 11:19:14;;;;;;;18.37;6.03;;;;;;;;;;4355926;32;317866;-82
2023/09/30 11:21:44;;;;;;;16.87;6.60;;;;;;;;;;4363904;32;318098;-87
2023/09/30 11:24:11;;;;;;;11.32;5.07;;;;;;;;;;4353809;32;318214;-86
2023/09/30 11:26:41;;;;;;;8.07;5.22;;;;;;;;;;4369779;32;318027;-86
2023/09/30 11:29:12;;;;;;;9.85;5.03;;;;;;;;;;4358848;32;317086;-86
2023/09/30 11:31:40;;;;;;;9.20;5.05;;;;;;;;;;4363953;32;316757;-85
2023/09/30 11:34:08;;;;;;;10.32;5.20;;;;;;;;;;4354535;32;316769;-86
2023/09/30 11:36:37;;;;;;;11.30;5.05;;;;;;;;;;4368761;32;318024;-87
2023/09/30 11:39:05;;;;;;;14.82;5.15;;;;;;;;;;4365667;32;318296;-82
2023/09/30 11:41:38;;;;;;;8.00;5.12;;;;;;;;;;4350308;32;417375;-80
2023/09/30 11:44:07;;;;;;;6.95;5.18;;;;;;;;;;4366876;32;317106;-80
2023/09/30 11:46:52;;;;;;;12.65;4.87;;;;;;;;;;4355297;32;416469;-80
2023/09/30 11:49:34;;;;;;;11.65;4.47;;;;;;;;;;4358502;32;318011;-81
2023/09/30 11:52:09;;;;;;;9.73;4.80;;;;;;;;;;4367881;32;317991;-88
2023/09/30 11:54:41;;;;;;;14.40;5.07;;;;;;;;;;4355553;32;417066;-85
2023/09/30 11:57:10;;;;;;;8.15;5.07;;;;;;;;;;4357691;32;317641;-85
2023/09/30 11:59:37;;;;;;;13.50;5.25;;;;;;;;;;4363052;32;356074;-80
2023/09/30 12:02:06;;;;;;;7.20;4.55;;;;;;;;;;4368801;32;317763;-81
2023/09/30 12:04:34;;;;;;;12.55;3.60;;;;;;;;;;4354792;32;415655;-83
2023/09/30 12:07:01;;;;;;;6.65;4.35;;;;;;;;;;4365293;32;318054;-81
2023/09/30 12:09:30;;;;;;;6.62;4.00;;;;;;;;;;4355555;32;316646;-81
2023/09/30 12:11:58;;;;;;;10.13;4.37;;;;;;;;;;4363695;32;355042;-82
2023/09/30 12:14:25;;;;;;;7.77;4.90;;;;;;;;;;4353738;32;318190;-81
2023/09/30 12:16:53;;;;;;;13.05;5.12;;;;;;;;;;4366253;32;316553;-81
2023/09/30 12:19:22;;;;;;;12.77;4.15;;;;;;;;;;4353071;32;318124;-85
2023/09/30 12:21:50;;;;;;;12.30;4.80;;;;;;;;;;4368179;32;317913;-81
2023/09/30 12:24:21;;;;;;;7.55;3.90;;;;;;;;;;4356448;32;354282;-82
2023/09/30 12:26:51;;;;;;;9.80;3.90;;;;;;;;;;4367254;32;316547;-81
2023/09/30 12:29:21;;;;;;;13.88;3.95;;;;;;;;;;4354923;32;316847;-84
2023/09/30 12:31:50;;;;;;;11.95;5.10;;;;;;;;;;4368401;32;317687;-81
2023/09/30 12:34:18;;;;;;;9.48;3.55;;;;;;;;;;4355845;32;355460;-82
2023/09/30 12:36:47;;;;;;;6.45;3.62;;;;;;;;;;4367011;32;316839;-82
2023/09/30 12:39:16;;;;;;;10.98;3.42;;;;;;;;;;4354033;32;316803;-81
2023/09/30 12:41:44;;;;;;;10.60;4.55;;;;;;;;;;4364298;32;317729;-81
2023/09/30 12:44:13;;;;;;;9.15;4.10;;;;;;;;;;4357610;32;317854;-81
2023/09/30 12:46:40;;;;;;;8.75;3.78;;;;;;;;;;4368267;32;315890;-81
2023/09/30 12:49:08;;;;;;;8.27;3.90;;;;;;;;;;4355568;32;316575;-83
2023/09/30 12:51:36;;;;;;;17.00;4.45;;;;;;;;;;4363055;32;316526;-82
2023/09/30 12:54:05;;;;;;;13.10;4.10;;;;;;;;;;4367091;32;317906;-82
2023/09/30 12:56:33;;;;;;;10.40;3.92;;;;;;;;;;4352528;32;417285;-81
2023/09/30 12:59:00;;;;;;;12.15;4.03;;;;;;;;;;4367174;32;317658;-82
2023/09/30 13:01:28;;;;;;;13.00;4.32;;;;;;;;;;4352387;32;317853;-82
2023/09/30 13:03:55;;;;;;;15.00;4.72;;;;;;;;;;4365940;32;317795;-82
2023/09/30 13:06:23;;;;;;;10.45;4.12;;;;;;;;;;4358675;32;317830;-81
2023/09/30 13:08:50;;;;;;;7.80;3.92;;;;;;;;;;4366321;32;318005;-87
2023/09/30 13:11:21;;;;;;;11.48;3.62;;;;;;;;;;4355595;32;316708;-85
2023/09/30 13:13:48;;;;;;;18.25;3.92;;;;;;;;;;4366735;32;318126;-87
2023/09/30 13:16:16;;;;;;;5.75;4.30;;;;;;;;;;4358179;32;318152;-87
2023/09/30 13:18:43;;;;;;;13.82;4.75;;;;;;;;;;4370875;32;316759;-88
2023/09/30 13:21:12;;;;;;;8.23;3.70;;;;;;;;;;4358864;32;317776;-86
2023/09/30 13:23:39;;;;;;;13.68;4.68;;;;;;;;;;4366338;32;316693;-86
2023/09/30 13:26:06;;;;;;;9.80;3.97;;;;;;;;;;4368767;32;317620;-85
2023/09/30 13:28:35;;;;;;;16.73;4.53;;;;;;;;;;4356234;32;415784;-87
2023/09/30 13:31:02;;;;;;;16.10;4.62;;;;;;;;;;4368362;32;318065;-87
2023/09/30 13:33:30;;;;;;;8.80;4.18;;;;;;;;;;4357533;32;317878;-86
2023/09/30 13:35:58;;;;;;;5.72;3.53;;;;;;;;;;4369092;32;317047;-82
2023/09/30 13:38:25;;;;;;;7.28;3.80;;;;;;;;;;4358299;32;316703;-81
2023/09/30 13:40:52;;;;;;;10.18;3.55;;;;;;;;;;4377563;32;206626;-81
2023/09/30 13:43:19;;;;;;;6.10;3.78;;;;;;;;;;4358024;32;317781;-83
2023/09/30 13:45:50;;;;;;;6.47;4.00;;;;;;;;;;4367307;32;316610;-82
2023/09/30 13:48:17;;;;;;;19.50;4.27;;;;;;;;;;4358155;32;316820;-81
2023/09/30 13:50:45;;;;;;;18.90;5.15;;;;;;;;;;4368876;32;319126;-81
2023/09/30 13:53:13;;;;;;;5.90;4.15;;;;;;;;;;4358590;32;317921;-80
2023/09/30 13:55:40;;;;;;;18.58;4.68;;;;;;;;;;4367682;32;317299;-88
2023/09/30 13:58:07;;;;;;;15.15;4.20;;;;;;;;;;4358802;32;317775;-87
2023/09/30 14:00:35;;;;;;;7.82;3.30;;;;;;;;;;4370825;32;318149;-87
2023/09/30 14:03:05;;;;;;;11.75;3.60;;;;;;;;;;4369955;32;316755;-87
2023/09/30 14:05:32;;;;;;;16.27;4.10;;;;;;;;;;4354251;32;417829;-80
2023/09/30 14:07:59;;;;;;;7.97;3.83;;;;;;;;;;4369394;32;317825;-81
2023/09/30 14:10:26;;;;;;;9.77;4.07;;;;;;;;;;4358761;32;331697;-81
2023/09/30 14:12:54;;;;;;;6.68;4.37;;;;;;;;;;4368750;32;316788;-80
2023/09/30 14:15:21;;;;;;;8.23;4.07;;;;;;;;;;4355487;32;316874;-82
2023/09/30 14:17:49;;;;;;;4.93;3.40;;;;;;;;;;4370375;32;316709;-81
2023/09/30 14:20:18;;;;;;;12.10;3.80;;;;;;;;;;4359915;32;316952;-87
2023/09/30 14:22:46;;;;;;;6.12;3.58;;;;;;;;;;4369115;32;317552;-83
2023/09/30 14:25:13;;;;;;;11.88;4.07;;;;;;;;;;4359289;32;316622;-82
2023/09/30 14:27:41;;;;;;;7.05;3.95;;;;;;;;;;4365588;32;317905;-87
2023/09/30 14:30:09;;;;;;;8.77;4.22;;;;;;;;;;4360053;32;316961;-87